• Join FlightAware (Why Join?)
  • Login
  • US Flag 
01:19PM EDT


 

Airport Tracker/Info


-or-


 

Live Flight TrackerFlight Track Log ✈ N121JM ✈ 24-Nov-2013 ✈ KVNY - KTEB

Flight Track Log - Related Links

Times and Time Zones

All times are in EST time to prevent confusion due to time zone crossing. See the N121JM flight status page for this flight to view local times or setup timezone preferences in your user account.

Time Position Orientation Groundspeed Altitude Reporting Facility
EST Latitude Longitude Course Direction KTS MPH feet Rate Location/Type
07:07PM 34.1833 -118.4833 75° East 190 219 1,500  Level Southern California TRACON
07:09PM 34.2014 -118.4042 75° East 244 281 6,300 2,400 Climbing Los Angeles Center
07:10PM 34.2656 -118.4411 335° Northwest 260 299 9,200 2,340 Climbing Los Angeles Center
07:11PM 34.3361 -118.4031 24° Northeast 280 322 11,200 2,040 Climbing Los Angeles Center
07:12PM 34.4356 -118.3478 25° Northeast 328 377 13,500 1,980 Climbing Los Angeles Center
07:13PM 34.5092 -118.2689 41° Northeast 358 412 15,300 1,980 Climbing Los Angeles Center
07:14PM 34.5156 -118.1383 87° East 392 451 17,600 1,860 Climbing Los Angeles Center
07:16PM 34.5006 -117.9911 97° East 404 465 19,600 1,680 Climbing Los Angeles Center
07:17PM 34.5253 -117.8583 77° East 407 468 21,500 1,920 Climbing Los Angeles Center
07:18PM 34.5575 -117.6961 76° East 417 480 23,700 1,680 Climbing Los Angeles Center
07:19PM 34.5797 -117.5861 76° East 421 484 25,000 1,560 Climbing Los Angeles Center
07:20PM 34.6133 -117.4139 77° East 440 506 27,000 1,980 Climbing Los Angeles Center
07:21PM 34.6461 -117.2381 77° East 448 516 29,200 1,860 Climbing Los Angeles Center
07:22PM 34.6750 -117.0939 76° East 445 512 30,900 1,560 Climbing Los Angeles Center
07:23PM 34.7028 -116.9483 77° East 445 512 32,500 1,200 Climbing Los Angeles Center
07:24PM 34.7311 -116.8003 77° East 450 518 33,500 1,020 Climbing Los Angeles Center
07:25PM 34.7603 -116.6500 77° East 457 526 34,700 1,140 Climbing Los Angeles Center
07:26PM 34.7925 -116.4686 78° East 458 527 36,100 1,200 Climbing Los Angeles Center
07:27PM 34.7956 -116.2803 89° East 467 537 37,500 1,020 Climbing Los Angeles Center
07:28PM 34.7936 -116.1247 91° East 464 534 38,300 720 Climbing Los Angeles Center
07:29PM 34.7919 -116.0019 91° East 461 531 39,000 720 Climbing Los Angeles Center
07:30PM 34.7886 -115.8175 91° East 457 526 39,900 660 Climbing Los Angeles Center
07:31PM 34.7872 -115.6625 91° East 459 528 40,400 480 Climbing Los Angeles Center
07:32PM 34.7847 -115.4800 91° East 456 525 40,900 240 Climbing Los Angeles Center
07:33PM 34.7831 -115.3247 91° East 460 529 41,000  Climbing Los Angeles Center
07:34PM 34.7800 -115.1661 91° East 470 541 41,000  Level Los Angeles Center
07:35PM 34.7767 -115.0031 91° East 483 556 41,000  Level Los Angeles Center
07:37PM 34.7758 -114.8044 90° East 492 566 41,000  Level Los Angeles Center
07:38PM 34.8050 -114.6478 77° East 487 560 41,000  Level Los Angeles Center
07:39PM 34.8447 -114.5261 68° East 484 557 41,000  Level Los Angeles Center
07:40PM 34.8933 -114.3747 69° East 485 558 41,000  Level Los Angeles Center
07:41PM 34.9531 -114.1928 68° East 485 558 41,000  Level Los Angeles Center
07:42PM 35.0114 -114.0103 69° East 485 558 41,000  Level Los Angeles Center
07:43PM 35.0542 -113.8797 68° East 480 552 41,000  Level Los Angeles Center
07:45PM 35.1500 -113.5790 68° East 473 544 41,000  Level FlightAware ADS-B (KPRC)
07:49PM 35.3435 -112.9650 69° East 471 542 41,000  Level FlightAware ADS-B (KPRC)
07:49PM 35.3731 -112.8696 69° East 475 547 41,000  Level FlightAware ADS-B (KPRC)
07:50PM 35.3983 -112.7883 69° East 475 547 41,000  Level FlightAware ADS-B (KPRC)
07:50PM 35.4225 -112.7064 69° East 471 542 41,000  Level Los Angeles Center
07:51PM 35.4633 -112.5753 69° East 477 549 41,000  Level Los Angeles Center
07:52PM 35.5100 -112.4233 69° East 478 550 41,000  Level Los Angeles Center
07:54PM 35.5919 -112.1517 70° East 472 543 41,000  Level Los Angeles Center
07:55PM 35.6375 -112.0011 70° East 473 544 41,000  Level Los Angeles Center
07:56PM 35.6831 -111.8506 70° East 471 542 41,000  Level Los Angeles Center
07:57PM 35.7281 -111.6986 70° East 474 545 41,000  Level Los Angeles Center
07:58PM 35.7639 -111.5764 70° East 475 547 41,000  Level Albuquerque Center
07:59PM 35.8150 -111.4058 70° East 475 547 41,000  Level Albuquerque Center
08:00PM 35.8661 -111.2414 69° East 477 549 41,000  Level Albuquerque Center
08:01PM 35.9097 -111.0889 71° East 476 548 41,000  Level Albuquerque Center
08:02PM 35.9525 -110.9417 70° East 476 548 41,000  Level Albuquerque Center
08:03PM 36.0033 -110.7697 70° East 477 549 41,000  Level Albuquerque Center
08:04PM 36.0217 -110.6994 72° East 479 551 41,000  Level Denver Center
08:05PM 36.0656 -110.5453 71° East 480 552 41,000  Level Denver Center
08:06PM 36.1089 -110.3914 71° East 478 550 41,000  Level Denver Center
08:07PM 36.1519 -110.2378 71° East 475 547 41,000  Level Denver Center
08:12PM 36.3914 -109.3799 71° East 479 551 41,000  Level FlightAware ADS-B (KMTJ)
08:13PM 36.4254 -109.2554 71° East 478 550 41,000  Level FlightAware ADS-B (KMTJ)
08:15PM 36.5146 -108.9246 71° East 475 547 41,000  Level FlightAware ADS-B (KMTJ)
08:16PM 36.5425 -108.8213 71° East 475 547 41,000  Level FlightAware ADS-B (KMTJ)
08:17PM 36.5871 -108.6526 72° East 477 549 41,000  Level FlightAware ADS-B (KMTJ)
08:17PM 36.6072 -108.5783 71° East 478 550 41,000  Level FlightAware ADS-B (KMTJ)
08:18PM 36.6321 -108.4849 72° East 480 552 41,000  Level FlightAware ADS-B (KMTJ)
08:18PM 36.6553 -108.3969 72° East 480 552 41,000  Level FlightAware ADS-B (KMTJ)
08:19PM 36.6787 -108.3075 72° East 481 554 41,000  Level FlightAware ADS-B (KMTJ)
08:20PM 36.7025 -108.2164 72° East 482 555 41,000  Level FlightAware ADS-B (KMTJ)
08:20PM 36.7246 -108.1322 72° East 481 554 41,000  Level FlightAware ADS-B (KMTJ)
08:21PM 36.7506 -108.0327 72° East 480 552 41,000  Level FlightAware ADS-B (KMTJ)
08:22PM 36.7848 -107.9007 72° East 480 552 41,000  Level FlightAware ADS-B (KMTJ)
08:22PM 36.8082 -107.8104 72° East 479 551 41,000  Level FlightAware ADS-B (KMTJ)
08:23PM 36.8261 -107.7406 72° East 477 549 41,000  Level FlightAware ADS-B (KMTJ)
08:23PM 36.8551 -107.6284 72° East 475 547 41,000  Level FlightAware ADS-B (KMTJ)
08:24PM 36.8848 -107.5113 72° East 474 545 41,000  Level FlightAware ADS-B (KMTJ)
08:25PM 36.9063 -107.4260 72° East 473 544 41,000  Level FlightAware ADS-B (KMTJ)
08:25PM 36.9282 -107.3398 72° East 473 544 41,000  Level FlightAware ADS-B (KMTJ)
08:26PM 36.9478 -107.2623 72° East 474 545 41,000  Level FlightAware ADS-B (KMTJ)
08:26PM 36.9662 -107.1888 73° East 474 545 41,000  Level FlightAware ADS-B (KMTJ)
08:27PM 36.9921 -107.0859 72° East 476 548 41,000  Level FlightAware ADS-B (KMTJ)
08:27PM 37.0050 -107.0345 73° East 477 549 41,000  Level FlightAware ADS-B (KMTJ)
08:28PM 37.0314 -106.9284 73° East 476 548 41,000  Level FlightAware ADS-B (KMTJ)
08:28PM 37.0507 -106.8507 73° East 477 549 41,000  Level FlightAware ADS-B (KMTJ)
08:29PM 37.0690 -106.7771 73° East 476 548 41,000  Level FlightAware ADS-B (KMTJ)
08:29PM 37.0978 -106.6605 73° East 476 548 41,000  Level FlightAware ADS-B (KMTJ)
08:30PM 37.1174 -106.5805 73° East 476 548 41,000  Level FlightAware ADS-B (KMTJ)
08:30PM 37.1354 -106.5068 73° East 477 549 41,000  Level FlightAware ADS-B (KMTJ)
08:31PM 37.1505 -106.4455 73° East 479 551 41,000  Level FlightAware ADS-B (KMTJ)
08:32PM 37.1821 -106.3158 73° East 483 556 41,000  Level FlightAware ADS-B (KMTJ)
08:32PM 37.2076 -106.2104 73° East 484 557 41,000  Level FlightAware ADS-B (KMTJ)
08:33PM 37.2388 -106.0803 73° East 487 560 41,000  Level FlightAware ADS-B (KMTJ)
08:34PM 37.2597 -105.9932 73° East 489 563 41,000  Level FlightAware ADS-B (KMTJ)
08:34PM 37.2900 -105.8667 73° East 490 564 41,000  Level FlightAware ADS-B (KMTJ)
08:35PM 37.3117 -105.7751 73° East 491 565 41,000  Level FlightAware ADS-B (KMTJ)
08:35PM 37.3190 -105.7440 74° East 492 566 41,000  Level FlightAware ADS-B (KMTJ)
08:36PM 37.3336 -105.6829 73° East 490 564 41,000  Level FlightAware ADS-B (KMTJ)
08:36PM 37.3638 -105.5549 73° East 488 562 41,000  Level FlightAware ADS-B (KMTJ)
08:37PM 37.3923 -105.4339 73° East 488 562 41,000  Level FlightAware ADS-B (KMTJ)
08:38PM 37.4258 -105.2894 74° East 488 562 41,000  Level FlightAware ADS-B (KMTJ)
08:39PM 37.4495 -105.1866 74° East 487 560 41,000  Level FlightAware ADS-B (KMTJ)
08:40PM 37.4856 -105.0347 74° East 488 562 41,000  Level Denver Center
08:41PM 37.5258 -104.8506 75° East 488 562 41,000  Level Denver Center
08:42PM 37.5608 -104.6947 74° East 483 556 41,000  Level Denver Center
08:43PM 37.6036 -104.5094 74° East 488 562 41,000  Level Denver Center
08:44PM 37.6381 -104.3506 75° East 488 562 41,000  Level Denver Center
08:45PM 37.6750 -104.1906 74° East 490 564 41,000  Level Denver Center
08:46PM 37.7172 -104.0028 74° East 488 562 41,000  Level Denver Center
08:47PM 37.7536 -103.8417 74° East 491 565 41,000  Level Denver Center
08:48PM 37.7886 -103.6803 75° East 494 568 41,000  Level Denver Center
08:49PM 37.8283 -103.4914 75° East 495 570 41,000  Level Denver Center
08:50PM 37.8631 -103.3300 75° East 495 570 41,000  Level Denver Center
08:51PM 37.9017 -103.1428 75° East 491 565 41,000  Level Denver Center
08:52PM 37.9356 -102.9828 75° East 491 565 41,000  Level Denver Center
08:53PM 37.9686 -102.8219 75° East 492 566 41,000  Level Denver Center
08:54PM 38.0075 -102.6356 75° East 490 564 41,000  Level Denver Center
08:55PM 38.0414 -102.4744 75° East 485 558 41,000  Level Denver Center
08:56PM 38.0736 -102.3150 76° East 486 559 41,000  Level Denver Center
08:57PM 38.1111 -102.1303 75° East 484 557 41,000  Level Denver Center
08:58PM 38.1419 -101.9725 76° East 481 554 41,000  Level Denver Center
08:59PM 38.1803 -101.7858 75° East 487 560 41,000  Level Denver Center
09:00PM 38.2114 -101.6267 76° East 484 557 41,000  Level Denver Center
09:01PM 38.2478 -101.4406 76° East 483 556 41,000  Level Denver Center
09:02PM 38.2794 -101.2806 76° East 486 559 41,000  Level Denver Center
09:03PM 38.3156 -101.0897 76° East 487 560 41,000  Level Kansas City Center
09:04PM 38.3453 -100.9297 77° East 485 558 41,000  Level Kansas City Center
09:05PM 38.3761 -100.7664 76° East 490 564 41,000  Level Kansas City Center
09:06PM 38.4106 -100.5789 77° East 487 560 41,000  Level Kansas City Center
09:07PM 38.4406 -100.4175 77° East 488 562 41,000  Level Kansas City Center
09:08PM 38.4703 -100.2575 77° East 485 558 41,000  Level Kansas City Center
09:09PM 38.5053 -100.0686 77° East 487 560 41,000  Level Kansas City Center
09:10PM 38.5336 -99.9050 77° East 491 565 41,000  Level Kansas City Center
09:11PM 38.5686 -99.7164 77° East 490 564 41,000  Level Kansas City Center
09:13PM 38.5978 -99.5522 77° East 492 566 41,000  Level Kansas City Center
09:14PM 38.6247 -99.3997 77° East 494 568 41,000  Level Kansas City Center
09:20PM 38.8095 -98.3326 77° East 508 585 41,000  Level FlightAware ADS-B
09:21PM 38.8533 -98.0656 78° East 508 585 41,000  Level FlightAware ADS-B
09:24PM 38.9385 -97.5738 77° East 507 583 41,000  Level FlightAware ADS-B
09:25PM 38.9936 -97.3649 71° East 508 585 41,000  Level FlightAware ADS-B
09:27PM 39.0699 -97.0754 71° East 509 586 41,000  Level FlightAware ADS-B
09:28PM 39.1342 -96.8303 71° East 506 582 41,000  Level FlightAware ADS-B
09:29PM 39.1650 -96.7094 71° East 505 581 41,000  Level Kansas City Center
09:30PM 39.2097 -96.5450 71° East 506 582 41,000  Level Kansas City Center
09:31PM 39.2489 -96.3794 73° East 504 580 41,000  Level Kansas City Center
09:32PM 39.2958 -96.1983 71° East 506 582 41,000  Level Kansas City Center
09:33PM 39.3397 -96.0208 72° East 506 582 41,000  Level Kansas City Center
09:34PM 39.3819 -95.8542 72° East 508 585 41,000  Level Kansas City Center
09:40PM 39.6300 -94.8407 72° East 513 590 41,000  Level FlightAware ADS-B
09:42PM 39.7321 -94.4089 73° East 511 588 41,000  Level FlightAware ADS-B
09:43PM 39.7345 -94.3983 74° East 511 588 41,000  Level FlightAware ADS-B
09:44PM 39.8138 -94.0587 73° East 509 586 41,000  Level FlightAware ADS-B
09:45PM 39.8349 -93.9674 73° East 509 586 41,000  Level FlightAware ADS-B
09:46PM 39.8663 -93.8317 73° East 508 585 41,000  Level FlightAware ADS-B
09:47PM 39.9303 -93.5473 74° East 507 583 41,000  Level FlightAware ADS-B
09:48PM 39.9682 -93.3790 74° East 506 582 41,000  Level FlightAware ADS-B
09:48PM 39.9906 -93.2784 74° East 506 582 41,000  Level FlightAware ADS-B
09:49PM 40.0021 -93.2277 73° East 506 582 41,000  Level FlightAware ADS-B
09:50PM 40.0326 -93.0911 74° East 505 581 41,000  Level FlightAware ADS-B
09:51PM 40.0647 -92.9453 74° East 507 583 41,000  Level FlightAware ADS-B
09:52PM 40.1219 -92.6819 74° East 510 587 41,000  Level Chicago Center
09:53PM 40.1597 -92.5092 74° East 511 588 41,000  Level Chicago Center
09:54PM 40.2047 -92.2997 74° East 512 589 41,000  Level Chicago Center
09:55PM 40.2425 -92.1247 74° East 510 587 41,000  Level Chicago Center
09:56PM 40.2792 -91.9475 75° East 510 587 41,000  Level Chicago Center
09:57PM 40.3172 -91.7683 74° East 514 592 41,000  Level Chicago Center
09:58PM 40.3533 -91.5875 75° East 516 594 41,000  Level Chicago Center
09:59PM 40.3925 -91.4069 74° East 519 597 41,000  Level Chicago Center
10:00PM 40.4333 -91.2053 75° East 517 595 41,000  Level Chicago Center
10:01PM 40.4692 -91.0239 75° East 514 592 41,000  Level Chicago Center
10:02PM 40.5050 -90.8444 75° East 510 587 41,000  Level Chicago Center
10:03PM 40.5394 -90.6644 76° East 509 586 41,000  Level Chicago Center
10:04PM 40.5753 -90.4836 75° East 511 588 41,000  Level Chicago Center
10:05PM 40.6111 -90.3025 75° East 511 588 41,000  Level Chicago Center
10:06PM 40.6519 -90.0889 76° East 507 583 41,000  Level Chicago Center
10:07PM 40.6867 -89.9086 76° East 509 586 41,000  Level Chicago Center
10:13PM 40.8864 -88.8280 76° East 517 595 41,000  Level FlightAware ADS-B
10:14PM 40.9208 -88.6300 76° East 519 597 41,000  Level Chicago Center
10:17PM 41.0172 -88.0862 76° East 522 601 41,000  Level FlightAware ADS-B
10:19PM 41.0567 -87.8586 76° East 519 597 41,000  Level Chicago Center
10:20PM 41.0881 -87.6714 77° East 525 604 41,000  Level Chicago Center
10:21PM 41.1208 -87.4808 77° East 533 613 41,000  Level Chicago Center
10:22PM 41.1514 -87.2925 78° East 529 609 41,000  Level Chicago Center
10:23PM 41.1825 -87.1017 78° East 530 610 41,000  Level Chicago Center
10:24PM 41.2136 -86.8667 80° East 538 619 41,000  Level Chicago Center
10:25PM 41.2347 -86.6728 82° East 535 616 41,000 -300 Level Chicago Center
10:26PM 41.2556 -86.4761 82° East 540 621 40,500 -780 Descending Chicago Center
10:27PM 41.2758 -86.2786 82° East 541 623 39,500 -780 Descending Chicago Center
10:28PM 41.2972 -86.0847 82° East 537 618 39,000 -300 Descending Chicago Center
10:29PM 41.3172 -85.8942 82° East 528 608 39,000  Level Chicago Center
10:30PM 41.3372 -85.7019 82° East 528 608 39,000  Level Chicago Center
10:31PM 41.3556 -85.5111 83° East 529 609 39,000  Level Chicago Center
10:32PM 41.3756 -85.3206 82° East 530 610 39,000  Level Chicago Center
10:33PM 41.3972 -85.0892 83° East 533 613 39,000  Level Chicago Center
10:34PM 41.4167 -84.8972 82° East 531 611 39,000  Level Chicago Center
10:35PM 41.4342 -84.7014 83° East 533 613 39,000  Level Chicago Center
10:36PM 41.4531 -84.5047 83° East 538 619 39,000  Level Chicago Center
10:37PM 41.4706 -84.3094 83° East 534 615 39,000  Level Chicago Center
10:38PM 41.4892 -84.1133 83° East 536 617 39,000  Level Chicago Center
10:39PM 41.5094 -83.8675 84° East 536 617 39,000  Level Cleveland Center
10:40PM 41.5267 -83.6739 83° East 531 611 39,000  Level Cleveland Center
10:41PM 41.5422 -83.4806 84° East 529 609 39,000  Level Cleveland Center
10:42PM 41.5578 -83.2883 84° East 528 608 39,000  Level Cleveland Center
10:43PM 41.5733 -83.0850 84° East 529 609 39,000  Level Cleveland Center
10:44PM 41.5897 -82.8878 84° East 529 609 39,000  Level Cleveland Center
10:45PM 41.6044 -82.6881 84° East 533 613 39,000  Level Cleveland Center
10:46PM 41.6189 -82.4919 84° East 527 606 39,000  Level Cleveland Center
10:47PM 41.6331 -82.2936 84° East 529 609 39,000  Level Cleveland Center
10:48PM 41.6475 -82.0950 84° East 530 610 39,000  Level Cleveland Center
10:49PM 41.6608 -81.8964 85° East 529 609 39,000  Level Cleveland Center
10:50PM 41.6736 -81.6983 85° East 526 605 39,000  Level Cleveland Center
10:51PM 41.6867 -81.5011 85° East 524 603 39,000  Level Cleveland Center
10:52PM 41.6992 -81.3056 85° East 520 598 39,000  Level Cleveland Center
10:53PM 41.7114 -81.1092 85° East 522 601 39,000  Level Cleveland Center
10:54PM 41.7239 -80.9125 85° East 525 604 39,000  Level Cleveland Center
10:55PM 41.7344 -80.7192 86° East 518 596 39,000  Level Cleveland Center
10:56PM 41.7456 -80.5314 85° East 505 581 39,000  Level Cleveland Center
10:57PM 41.7561 -80.3428 86° East 504 580 39,000  Level Cleveland Center
10:58PM 41.7672 -80.1492 86° East 514 592 39,000  Level Cleveland Center
10:59PM 41.7772 -79.9575 86° East 513 590 39,000  Level Cleveland Center
11:00PM 41.7867 -79.7678 86° East 508 585 39,000  Level Cleveland Center
11:01PM 41.7853 -79.6042 91° East 503 579 39,000  Level Cleveland Center
11:02PM 41.7769 -79.3750 93° East 511 588 39,000 -240 Level Cleveland Center
11:08PM 41.7321 -78.2245 93° East 549 632 37,400 -360 Descending FlightAware ADS-B (KWWD)
11:09PM 41.7267 -78.1090 94° East 546 628 37,000 -720 Descending FlightAware ADS-B (KWWD)
11:09PM 41.7200 -77.9705 94° East 542 624 36,500 -780 Descending FlightAware ADS-B (KWWD)
11:10PM 41.7142 -77.8478 94° East 541 623 36,000 -900 Descending FlightAware ADS-B (KWWD)
11:11PM 41.7088 -77.7373 94° East 540 621 35,500 -840 Descending FlightAware ADS-B (KWWD)
11:11PM 41.7019 -77.5983 94° East 539 620 35,000 -420 Descending FlightAware ADS-B (KWWD)
11:12PM 41.6962 -77.4878 94° East 537 618 35,000  Level FlightAware ADS-B (KWWD)
11:12PM 41.6901 -77.3669 94° East 536 617 35,000 -660 Level FlightAware ADS-B (KWWD)
11:14PM 41.6741 -77.1542 96° East 543 625 33,900 -1,560 Descending FlightAware ADS-B (KWWD)
11:15PM 41.6097 -76.8984 109° East 559 643 31,400 -1,980 Descending FlightAware ADS-B (KWWD)
11:16PM 41.5297 -76.6062 110° East 559 643 28,400 -2,040 Descending FlightAware ADS-B (KWWD)
11:18PM 41.4225 -76.2197 110° East 544 626 24,400 -2,040 Descending FlightAware ADS-B (KWWD)
11:19PM 41.3933 -76.1160 111° Southeast 531 611 23,200 -2,340 Descending FlightAware ADS-B (KWWD)
11:19PM 41.3646 -76.0134 110° East 523 602 21,800 -2,520 Descending FlightAware ADS-B (KWWD)
11:20PM 41.3311 -75.8948 111° Southeast 510 587 20,200 -2,460 Descending FlightAware ADS-B (KWWD)
11:21PM 41.3056 -75.8049 111° Southeast 496 571 18,900 -2,580 Descending FlightAware ADS-B (KWWD)
11:21PM 41.2764 -75.7044 111° Southeast 476 548 17,300 -2,640 Descending FlightAware ADS-B (KWWD)
11:22PM 41.2482 -75.6146 113° Southeast 460 529 15,900 -2,640 Descending FlightAware ADS-B (KWWD)
11:22PM 41.2170 -75.5229 114° Southeast 444 511 14,300 -1,980 Descending FlightAware ADS-B (KWWD)
11:23PM 41.1864 -75.4275 114° Southeast 449 517 13,100 -1,980 Descending New York Center
11:24PM 41.1397 -75.2919 115° Southeast 389 448 10,700 -2,160 Descending New York Center
11:25PM 41.1039 -75.1906 115° Southeast 326 375 8,800 -1,500 Descending New York Center
11:26PM 41.0739 -75.1006 114° Southeast 298 343 7,700 -840 Descending New York Center
11:32PM 40.8393 -74.5603 114° Southeast 271 312 3,200 -720 Descending FlightAware ADS-B
11:35PM 40.7449 -74.2957 115° Southeast 246 283 1,600 -480 Descending FlightAware ADS-B
11:35PM 40.7454 -74.2715 88° East 239 275 1,600  Level FlightAware ADS-B
11:35PM 40.7460 -74.2650 83° East 236 272 1,600  Level FlightAware ADS-B
11:36PM 40.7488 -74.2436 80° East 233 268 1,600 -180 Level FlightAware ADS-B
11:36PM 40.7524 -74.2166 80° East 235 270 1,500 -600 Descending FlightAware ADS-B
11:36PM 40.7561 -74.2026 71° East 229 264 1,300 -840 Descending FlightAware ADS-B
11:36PM 40.7582 -74.1981 58° Northeast 225 259 1,300 -420 Level FlightAware ADS-B
11:36PM 40.7657 -74.1869 49° Northeast 216 249 1,200 -360 Descending FlightAware ADS-B
11:36PM 40.7717 -74.1799 41° Northeast 208 239 1,200 -360 Level FlightAware ADS-B
11:37PM 40.7780 -74.1728 40° Northeast 201 231 1,100 -480 Descending FlightAware ADS-B
11:37PM 40.7807 -74.1693 44° Northeast 200 230 1,100  Level FlightAware ADS-B
11:37PM 40.7833 -74.1654 49° Northeast 199 229 1,100 -240 Level FlightAware ADS-B
11:37PM 40.7991 -74.1406 50° Northeast 194 223 1,000 -300 Descending FlightAware ADS-B
11:37PM 40.8052 -74.1316 48° Northeast 162 186 900 -420 Descending FlightAware ADS-B
11:38PM 40.8070 -74.1287 51° Northeast 160 184 900 -420 Level FlightAware ADS-B
11:38PM 40.8105 -74.0842 84° East 165 190 600 -420 Descending FlightAware ADS-B
11:38PM 40.8107 -74.0801 86° East 161 185 600 -780 Level FlightAware ADS-B
11:38PM 40.8111 -74.0759 83° East 158 182 500 -720 Descending FlightAware ADS-B
11:38PM 40.8120 -74.0719 73° East 155 178 500 -780 Level FlightAware ADS-B
11:39PM 40.8128 -74.0693 68° East 152 175 400 -1,140 Descending FlightAware ADS-B
11:39PM 40.8161 -74.0635 53° Northeast 146 168 300 -1,020 Descending FlightAware ADS-B
11:39PM 40.8222 -74.0610 17° North 135 155 100 -1,200 Descending FlightAware ADS-B
11:39PM 40.8246 -74.0610 360° North 133 153 -1,500 Descending FlightAware ADS-B
11:39PM 40.8266 -74.0610 360° North 133 153  Level FlightAware ADS-B
11:39PM 40.8350 -74.0606 North 134 154  Level FlightAware ADS-B